Terminal Aerodrome Forecast
Issued by NWS Riverton, WY

Home | Current Version | Previous Version | Text Only | Print | Product List | Glossary On
Versions: 1 2 3 4 5 6 7 8 9 10 11 12 13 14 15 16 17 18 19 20 21 22 23 24 25
000
FTUS45 KRIW 201700
TAFRIW
TAF
KRIW 201720Z 2018/2118 VRB05KT P6SM BKN120
     FM210000 24006KT P6SM SCT100 BKN150
     FM210600 24006KT P6SM BKN100 WS020/26035KT=

USA.gov is the U.S. government's official web portal to all federal, state and local government web resources and services.